sensor_id;sensor_type;location;lat;lon;timestamp;P1;durP1;ratioP1;P2;durP2;ratioP2
7703;SDS011;3894;49.700;10.770;2023-06-14T00:01:52;6.85;;;3.40;;
7703;SDS011;3894;49.700;10.770;2023-06-14T00:04:18;6.13;;;3.40;;
7703;SDS011;3894;49.700;10.770;2023-06-14T00:06:45;6.32;;;3.75;;
7703;SDS011;3894;49.700;10.770;2023-06-14T00:09:11;7.40;;;3.47;;
7703;SDS011;3894;49.700;10.770;2023-06-14T00:11:42;6.72;;;3.50;;
7703;SDS011;3894;49.700;10.770;2023-06-14T00:14:09;7.22;;;3.65;;
7703;SDS011;3894;49.700;10.770;2023-06-14T00:16:37;6.80;;;3.72;;
7703;SDS011;3894;49.700;10.770;2023-06-14T00:19:04;6.82;;;3.30;;
7703;SDS011;3894;49.700;10.770;2023-06-14T00:21:30;7.55;;;3.72;;
7703;SDS011;3894;49.700;10.770;2023-06-14T00:23:57;6.78;;;3.80;;
7703;SDS011;3894;49.700;10.770;2023-06-14T00:28:51;6.25;;;3.90;;
7703;SDS011;3894;49.700;10.770;2023-06-14T00:31:17;7.35;;;3.90;;
7703;SDS011;3894;49.700;10.770;2023-06-14T00:33:42;7.72;;;4.70;;
7703;SDS011;3894;49.700;10.770;2023-06-14T00:36:08;8.60;;;3.88;;
7703;SDS011;3894;49.700;10.770;2023-06-14T00:38:34;8.40;;;3.67;;
7703;SDS011;3894;49.700;10.770;2023-06-14T00:41:00;6.68;;;3.67;;
7703;SDS011;3894;49.700;10.770;2023-06-14T00:43:25;7.45;;;3.63;;
7703;SDS011;3894;49.700;10.770;2023-06-14T00:45:51;7.53;;;4.45;;
7703;SDS011;3894;49.700;10.770;2023-06-14T00:48:17;8.52;;;3.95;;
7703;SDS011;3894;49.700;10.770;2023-06-14T00:50:44;7.32;;;3.72;;
7703;SDS011;3894;49.700;10.770;2023-06-14T00:53:14;6.68;;;3.78;;
7703;SDS011;3894;49.700;10.770;2023-06-14T00:55:42;9.35;;;3.28;;
7703;SDS011;3894;49.700;10.770;2023-06-14T00:58:08;6.43;;;3.20;;
7703;SDS011;3894;49.700;10.770;2023-06-14T01:00:35;6.97;;;3.95;;
7703;SDS011;3894;49.700;10.770;2023-06-14T01:03:01;7.43;;;3.63;;
7703;SDS011;3894;49.700;10.770;2023-06-14T01:05:27;8.50;;;4.03;;
7703;SDS011;3894;49.700;10.770;2023-06-14T01:08:09;8.35;;;4.07;;
7703;SDS011;3894;49.700;10.770;2023-06-14T01:13:27;9.52;;;4.03;;
7703;SDS011;3894;49.700;10.770;2023-06-14T01:16:03;8.57;;;4.03;;
7703;SDS011;3894;49.700;10.770;2023-06-14T01:18:31;6.30;;;3.55;;
7703;SDS011;3894;49.700;10.770;2023-06-14T01:20:58;6.38;;;3.95;;
7703;SDS011;3894;49.700;10.770;2023-06-14T01:23:24;6.72;;;4.30;;
7703;SDS011;3894;49.700;10.770;2023-06-14T01:25:57;7.50;;;3.90;;
7703;SDS011;3894;49.700;10.770;2023-06-14T01:28:22;6.53;;;3.65;;
7703;SDS011;3894;49.700;10.770;2023-06-14T01:30:52;7.13;;;3.58;;
7703;SDS011;3894;49.700;10.770;2023-06-14T01:33:24;5.75;;;3.60;;
7703;SDS011;3894;49.700;10.770;2023-06-14T01:35:52;7.65;;;3.83;;
7703;SDS011;3894;49.700;10.770;2023-06-14T01:38:20;9.93;;;4.25;;
7703;SDS011;3894;49.700;10.770;2023-06-14T01:40:48;6.57;;;3.90;;
7703;SDS011;3894;49.700;10.770;2023-06-14T01:43:16;7.10;;;3.15;;
7703;SDS011;3894;49.700;10.770;2023-06-14T01:45:42;7.70;;;3.85;;
7703;SDS011;3894;49.700;10.770;2023-06-14T01:48:12;7.05;;;3.90;;
7703;SDS011;3894;49.700;10.770;2023-06-14T01:50:38;7.43;;;3.80;;
7703;SDS011;3894;49.700;10.770;2023-06-14T01:53:06;7.43;;;4.03;;
7703;SDS011;3894;49.700;10.770;2023-06-14T01:55:32;7.07;;;3.72;;
7703;SDS011;3894;49.700;10.770;2023-06-14T01:58:02;6.22;;;3.90;;
7703;SDS011;3894;49.700;10.770;2023-06-14T02:00:28;8.10;;;3.58;;
7703;SDS011;3894;49.700;10.770;2023-06-14T02:02:54;7.43;;;4.03;;
7703;SDS011;3894;49.700;10.770;2023-06-14T02:05:20;7.13;;;3.40;;
7703;SDS011;3894;49.700;10.770;2023-06-14T02:07:46;6.75;;;3.38;;
7703;SDS011;3894;49.700;10.770;2023-06-14T02:10:12;6.72;;;3.67;;
7703;SDS011;3894;49.700;10.770;2023-06-14T02:12:38;7.40;;;3.88;;
7703;SDS011;3894;49.700;10.770;2023-06-14T02:15:04;8.65;;;4.22;;
7703;SDS011;3894;49.700;10.770;2023-06-14T02:17:31;10.07;;;4.10;;
7703;SDS011;3894;49.700;10.770;2023-06-14T02:19:56;6.22;;;3.75;;
7703;SDS011;3894;49.700;10.770;2023-06-14T02:22:22;7.45;;;3.30;;
7703;SDS011;3894;49.700;10.770;2023-06-14T02:24:48;7.25;;;3.47;;
7703;SDS011;3894;49.700;10.770;2023-06-14T02:27:13;6.95;;;3.78;;
7703;SDS011;3894;49.700;10.770;2023-06-14T02:29:39;6.60;;;3.67;;
7703;SDS011;3894;49.700;10.770;2023-06-14T02:32:05;6.05;;;3.55;;
7703;SDS011;3894;49.700;10.770;2023-06-14T02:34:32;7.97;;;4.22;;
7703;SDS011;3894;49.700;10.770;2023-06-14T02:36:59;6.28;;;3.50;;
7703;SDS011;3894;49.700;10.770;2023-06-14T02:39:28;7.38;;;3.92;;
7703;SDS011;3894;49.700;10.770;2023-06-14T02:41:55;8.02;;;3.35;;
7703;SDS011;3894;49.700;10.770;2023-06-14T02:44:24;8.25;;;4.22;;
7703;SDS011;3894;49.700;10.770;2023-06-14T02:46:51;7.10;;;3.65;;
7703;SDS011;3894;49.700;10.770;2023-06-14T02:49:17;11.32;;;4.38;;
7703;SDS011;3894;49.700;10.770;2023-06-14T02:51:43;6.28;;;3.08;;
7703;SDS011;3894;49.700;10.770;2023-06-14T02:54:08;6.32;;;3.80;;
7703;SDS011;3894;49.700;10.770;2023-06-14T02:56:34;6.55;;;3.80;;
7703;SDS011;3894;49.700;10.770;2023-06-14T02:59:00;7.80;;;4.20;;
7703;SDS011;3894;49.700;10.770;2023-06-14T03:01:27;8.65;;;4.10;;
7703;SDS011;3894;49.700;10.770;2023-06-14T03:03:59;7.28;;;4.05;;
7703;SDS011;3894;49.700;10.770;2023-06-14T03:06:28;7.45;;;3.72;;
7703;SDS011;3894;49.700;10.770;2023-06-14T03:08:57;5.72;;;3.22;;
7703;SDS011;3894;49.700;10.770;2023-06-14T03:11:29;6.30;;;3.53;;
7703;SDS011;3894;49.700;10.770;2023-06-14T03:13:55;6.63;;;3.35;;
7703;SDS011;3894;49.700;10.770;2023-06-14T03:16:22;8.43;;;3.88;;
7703;SDS011;3894;49.700;10.770;2023-06-14T03:18:49;6.82;;;3.78;;
7703;SDS011;3894;49.700;10.770;2023-06-14T03:21:16;7.38;;;3.72;;
7703;SDS011;3894;49.700;10.770;2023-06-14T03:23:42;7.95;;;3.70;;
7703;SDS011;3894;49.700;10.770;2023-06-14T03:26:09;7.47;;;5.03;;
7703;SDS011;3894;49.700;10.770;2023-06-14T03:28:43;7.03;;;3.95;;
7703;SDS011;3894;49.700;10.770;2023-06-14T03:31:09;7.68;;;4.00;;
7703;SDS011;3894;49.700;10.770;2023-06-14T03:33:35;7.95;;;4.60;;
7703;SDS011;3894;49.700;10.770;2023-06-14T03:36:01;7.40;;;3.80;;
7703;SDS011;3894;49.700;10.770;2023-06-14T03:38:27;6.35;;;3.65;;
7703;SDS011;3894;49.700;10.770;2023-06-14T03:40:53;8.80;;;3.92;;
7703;SDS011;3894;49.700;10.770;2023-06-14T03:43:19;8.82;;;4.15;;
7703;SDS011;3894;49.700;10.770;2023-06-14T03:45:44;8.77;;;3.85;;
7703;SDS011;3894;49.700;10.770;2023-06-14T03:48:10;7.57;;;3.83;;
7703;SDS011;3894;49.700;10.770;2023-06-14T03:50:36;6.63;;;3.65;;
7703;SDS011;3894;49.700;10.770;2023-06-14T03:53:05;8.43;;;3.67;;
7703;SDS011;3894;49.700;10.770;2023-06-14T03:55:31;6.18;;;3.88;;
7703;SDS011;3894;49.700;10.770;2023-06-14T03:57:58;6.05;;;3.58;;
7703;SDS011;3894;49.700;10.770;2023-06-14T04:00:24;7.25;;;3.53;;
7703;SDS011;3894;49.700;10.770;2023-06-14T04:02:49;5.80;;;3.10;;
7703;SDS011;3894;49.700;10.770;2023-06-14T04:05:15;7.93;;;4.05;;
7703;SDS011;3894;49.700;10.770;2023-06-14T04:07:42;6.78;;;4.05;;
7703;SDS011;3894;49.700;10.770;2023-06-14T04:10:10;6.85;;;3.03;;
7703;SDS011;3894;49.700;10.770;2023-06-14T04:12:36;6.43;;;3.58;;
7703;SDS011;3894;49.700;10.770;2023-06-14T04:15:02;6.90;;;3.63;;
7703;SDS011;3894;49.700;10.770;2023-06-14T04:17:28;8.30;;;4.38;;
7703;SDS011;3894;49.700;10.770;2023-06-14T04:19:54;7.32;;;4.40;;
7703;SDS011;3894;49.700;10.770;2023-06-14T04:22:20;7.00;;;3.75;;
7703;SDS011;3894;49.700;10.770;2023-06-14T04:24:46;8.38;;;3.78;;
7703;SDS011;3894;49.700;10.770;2023-06-14T04:27:11;6.45;;;3.42;;
7703;SDS011;3894;49.700;10.770;2023-06-14T04:29:39;7.43;;;2.78;;
7703;SDS011;3894;49.700;10.770;2023-06-14T04:32:05;7.93;;;3.80;;
7703;SDS011;3894;49.700;10.770;2023-06-14T04:34:34;7.65;;;4.10;;
7703;SDS011;3894;49.700;10.770;2023-06-14T04:39:28;7.43;;;3.65;;
7703;SDS011;3894;49.700;10.770;2023-06-14T04:41:53;7.75;;;3.95;;
7703;SDS011;3894;49.700;10.770;2023-06-14T04:44:22;8.63;;;4.07;;
7703;SDS011;3894;49.700;10.770;2023-06-14T04:46:54;7.35;;;4.10;;
7703;SDS011;3894;49.700;10.770;2023-06-14T04:49:21;8.75;;;4.28;;
7703;SDS011;3894;49.700;10.770;2023-06-14T04:51:48;7.85;;;4.18;;
7703;SDS011;3894;49.700;10.770;2023-06-14T04:54:22;9.38;;;3.90;;
7703;SDS011;3894;49.700;10.770;2023-06-14T04:56:51;7.57;;;3.88;;
7703;SDS011;3894;49.700;10.770;2023-06-14T04:59:18;7.35;;;3.40;;
7703;SDS011;3894;49.700;10.770;2023-06-14T05:01:45;8.98;;;3.85;;
7703;SDS011;3894;49.700;10.770;2023-06-14T05:04:14;10.82;;;4.50;;
7703;SDS011;3894;49.700;10.770;2023-06-14T05:06:41;9.02;;;4.13;;
7703;SDS011;3894;49.700;10.770;2023-06-14T05:09:09;8.15;;;4.30;;
7703;SDS011;3894;49.700;10.770;2023-06-14T05:11:35;7.13;;;3.78;;
7703;SDS011;3894;49.700;10.770;2023-06-14T05:14:01;8.40;;;3.83;;
7703;SDS011;3894;49.700;10.770;2023-06-14T05:16:26;8.57;;;4.55;;
7703;SDS011;3894;49.700;10.770;2023-06-14T05:18:54;8.18;;;4.63;;
7703;SDS011;3894;49.700;10.770;2023-06-14T05:21:20;8.07;;;4.13;;
7703;SDS011;3894;49.700;10.770;2023-06-14T05:23:45;7.65;;;4.25;;
7703;SDS011;3894;49.700;10.770;2023-06-14T05:26:11;8.48;;;4.05;;
7703;SDS011;3894;49.700;10.770;2023-06-14T05:28:36;7.47;;;4.45;;
7703;SDS011;3894;49.700;10.770;2023-06-14T05:31:02;7.30;;;3.75;;
7703;SDS011;3894;49.700;10.770;2023-06-14T05:33:28;8.60;;;3.75;;
7703;SDS011;3894;49.700;10.770;2023-06-14T05:35:53;12.32;;;4.28;;
7703;SDS011;3894;49.700;10.770;2023-06-14T05:38:20;11.50;;;3.88;;
7703;SDS011;3894;49.700;10.770;2023-06-14T05:40:46;8.40;;;3.72;;
7703;SDS011;3894;49.700;10.770;2023-06-14T05:43:11;7.78;;;3.78;;
7703;SDS011;3894;49.700;10.770;2023-06-14T05:45:37;8.50;;;4.00;;
7703;SDS011;3894;49.700;10.770;2023-06-14T05:48:02;8.38;;;3.45;;
7703;SDS011;3894;49.700;10.770;2023-06-14T05:50:28;7.85;;;4.13;;
7703;SDS011;3894;49.700;10.770;2023-06-14T05:52:54;9.90;;;3.60;;
7703;SDS011;3894;49.700;10.770;2023-06-14T05:55:20;7.55;;;3.53;;
7703;SDS011;3894;49.700;10.770;2023-06-14T05:57:45;7.10;;;3.90;;
7703;SDS011;3894;49.700;10.770;2023-06-14T06:00:13;9.80;;;4.82;;
7703;SDS011;3894;49.700;10.770;2023-06-14T06:02:42;7.10;;;4.10;;
7703;SDS011;3894;49.700;10.770;2023-06-14T06:05:10;7.95;;;3.40;;
7703;SDS011;3894;49.700;10.770;2023-06-14T06:07:37;6.70;;;4.03;;
7703;SDS011;3894;49.700;10.770;2023-06-14T06:10:04;9.68;;;4.55;;
7703;SDS011;3894;49.700;10.770;2023-06-14T06:12:30;6.50;;;3.42;;
7703;SDS011;3894;49.700;10.770;2023-06-14T06:14:57;6.13;;;3.67;;
7703;SDS011;3894;49.700;10.770;2023-06-14T06:17:24;9.27;;;3.90;;
7703;SDS011;3894;49.700;10.770;2023-06-14T06:19:50;8.30;;;3.83;;
7703;SDS011;3894;49.700;10.770;2023-06-14T06:22:16;8.35;;;3.65;;
7703;SDS011;3894;49.700;10.770;2023-06-14T06:24:42;7.65;;;3.78;;
7703;SDS011;3894;49.700;10.770;2023-06-14T06:27:07;6.93;;;3.65;;
7703;SDS011;3894;49.700;10.770;2023-06-14T06:29:33;6.57;;;3.95;;
7703;SDS011;3894;49.700;10.770;2023-06-14T06:31:59;8.93;;;4.40;;
7703;SDS011;3894;49.700;10.770;2023-06-14T06:34:25;6.90;;;4.07;;
7703;SDS011;3894;49.700;10.770;2023-06-14T06:36:51;7.82;;;4.00;;
7703;SDS011;3894;49.700;10.770;2023-06-14T06:39:16;7.28;;;3.95;;
7703;SDS011;3894;49.700;10.770;2023-06-14T06:41:42;6.68;;;3.45;;
7703;SDS011;3894;49.700;10.770;2023-06-14T06:44:08;7.20;;;4.32;;
7703;SDS011;3894;49.700;10.770;2023-06-14T06:46:35;6.80;;;4.00;;
7703;SDS011;3894;49.700;10.770;2023-06-14T06:49:05;7.65;;;3.78;;
7703;SDS011;3894;49.700;10.770;2023-06-14T06:51:31;9.50;;;4.15;;
7703;SDS011;3894;49.700;10.770;2023-06-14T06:53:56;8.00;;;3.70;;
7703;SDS011;3894;49.700;10.770;2023-06-14T06:56:22;6.85;;;3.90;;
7703;SDS011;3894;49.700;10.770;2023-06-14T06:58:51;6.00;;;3.50;;
7703;SDS011;3894;49.700;10.770;2023-06-14T07:01:17;6.93;;;3.67;;
7703;SDS011;3894;49.700;10.770;2023-06-14T07:03:44;7.15;;;3.40;;
7703;SDS011;3894;49.700;10.770;2023-06-14T07:06:10;7.97;;;3.65;;
7703;SDS011;3894;49.700;10.770;2023-06-14T07:08:36;6.28;;;3.03;;
7703;SDS011;3894;49.700;10.770;2023-06-14T07:11:04;6.13;;;3.53;;
7703;SDS011;3894;49.700;10.770;2023-06-14T07:13:30;6.88;;;3.53;;
7703;SDS011;3894;49.700;10.770;2023-06-14T07:15:59;6.63;;;3.45;;
7703;SDS011;3894;49.700;10.770;2023-06-14T07:18:29;5.85;;;3.03;;
7703;SDS011;3894;49.700;10.770;2023-06-14T07:20:55;5.45;;;3.10;;
7703;SDS011;3894;49.700;10.770;2023-06-14T07:23:22;4.63;;;2.28;;
7703;SDS011;3894;49.700;10.770;2023-06-14T07:25:48;7.95;;;3.50;;
7703;SDS011;3894;49.700;10.770;2023-06-14T07:28:13;6.72;;;2.70;;
7703;SDS011;3894;49.700;10.770;2023-06-14T07:30:41;5.55;;;3.67;;
7703;SDS011;3894;49.700;10.770;2023-06-14T07:33:07;5.80;;;2.83;;
7703;SDS011;3894;49.700;10.770;2023-06-14T07:35:33;7.38;;;3.53;;
7703;SDS011;3894;49.700;10.770;2023-06-14T07:38:00;7.97;;;2.80;;
7703;SDS011;3894;49.700;10.770;2023-06-14T07:40:25;5.82;;;2.50;;
7703;SDS011;3894;49.700;10.770;2023-06-14T07:42:52;5.82;;;3.33;;
7703;SDS011;3894;49.700;10.770;2023-06-14T07:45:19;6.30;;;2.65;;
7703;SDS011;3894;49.700;10.770;2023-06-14T07:47:45;5.90;;;2.95;;
7703;SDS011;3894;49.700;10.770;2023-06-14T07:50:10;6.30;;;2.42;;
7703;SDS011;3894;49.700;10.770;2023-06-14T07:52:37;5.13;;;2.30;;
7703;SDS011;3894;49.700;10.770;2023-06-14T07:55:03;9.00;;;3.00;;
7703;SDS011;3894;49.700;10.770;2023-06-14T07:57:29;4.93;;;2.25;;
7703;SDS011;3894;49.700;10.770;2023-06-14T07:59:54;8.35;;;3.20;;
7703;SDS011;3894;49.700;10.770;2023-06-14T08:02:20;5.82;;;2.90;;
7703;SDS011;3894;49.700;10.770;2023-06-14T08:04:45;7.30;;;2.50;;
7703;SDS011;3894;49.700;10.770;2023-06-14T08:09:39;6.97;;;2.67;;
7703;SDS011;3894;49.700;10.770;2023-06-14T08:12:05;5.75;;;2.88;;
7703;SDS011;3894;49.700;10.770;2023-06-14T08:14:38;5.30;;;2.60;;
7703;SDS011;3894;49.700;10.770;2023-06-14T08:17:04;4.97;;;2.60;;
7703;SDS011;3894;49.700;10.770;2023-06-14T08:19:30;5.00;;;2.58;;
7703;SDS011;3894;49.700;10.770;2023-06-14T08:21:56;6.10;;;2.50;;
7703;SDS011;3894;49.700;10.770;2023-06-14T08:24:22;5.57;;;2.85;;
7703;SDS011;3894;49.700;10.770;2023-06-14T08:26:52;7.35;;;2.63;;
7703;SDS011;3894;49.700;10.770;2023-06-14T08:29:18;5.25;;;2.70;;
7703;SDS011;3894;49.700;10.770;2023-06-14T08:31:44;7.40;;;2.60;;
7703;SDS011;3894;49.700;10.770;2023-06-14T08:34:10;5.78;;;3.47;;
7703;SDS011;3894;49.700;10.770;2023-06-14T08:36:36;5.43;;;3.00;;
7703;SDS011;3894;49.700;10.770;2023-06-14T08:39:01;5.78;;;2.45;;
7703;SDS011;3894;49.700;10.770;2023-06-14T08:41:27;5.38;;;2.67;;
7703;SDS011;3894;49.700;10.770;2023-06-14T08:43:54;6.30;;;2.83;;
7703;SDS011;3894;49.700;10.770;2023-06-14T08:46:20;5.28;;;3.15;;
7703;SDS011;3894;49.700;10.770;2023-06-14T08:48:50;6.63;;;2.78;;
7703;SDS011;3894;49.700;10.770;2023-06-14T08:51:20;6.05;;;2.97;;
7703;SDS011;3894;49.700;10.770;2023-06-14T08:53:49;7.25;;;2.80;;
7703;SDS011;3894;49.700;10.770;2023-06-14T08:56:27;6.50;;;2.60;;
7703;SDS011;3894;49.700;10.770;2023-06-14T08:58:54;5.05;;;2.13;;
7703;SDS011;3894;49.700;10.770;2023-06-14T09:03:48;6.03;;;2.28;;
7703;SDS011;3894;49.700;10.770;2023-06-14T09:06:14;5.00;;;2.15;;
7703;SDS011;3894;49.700;10.770;2023-06-14T09:08:41;6.50;;;3.00;;
7703;SDS011;3894;49.700;10.770;2023-06-14T09:11:08;5.50;;;3.00;;
7703;SDS011;3894;49.700;10.770;2023-06-14T09:13:39;5.85;;;2.97;;
7703;SDS011;3894;49.700;10.770;2023-06-14T09:16:05;6.63;;;2.63;;
7703;SDS011;3894;49.700;10.770;2023-06-14T09:18:37;6.28;;;2.58;;
7703;SDS011;3894;49.700;10.770;2023-06-14T09:21:12;4.95;;;2.13;;
7703;SDS011;3894;49.700;10.770;2023-06-14T09:23:42;4.72;;;2.80;;
7703;SDS011;3894;49.700;10.770;2023-06-14T09:26:09;7.30;;;2.60;;
7703;SDS011;3894;49.700;10.770;2023-06-14T09:28:36;6.13;;;2.63;;
7703;SDS011;3894;49.700;10.770;2023-06-14T09:31:14;5.63;;;2.78;;
7703;SDS011;3894;49.700;10.770;2023-06-14T09:33:44;6.18;;;2.75;;
7703;SDS011;3894;49.700;10.770;2023-06-14T09:36:15;6.05;;;2.72;;
7703;SDS011;3894;49.700;10.770;2023-06-14T09:38:57;4.82;;;2.35;;
7703;SDS011;3894;49.700;10.770;2023-06-14T09:41:37;4.85;;;2.58;;
7703;SDS011;3894;49.700;10.770;2023-06-14T09:44:07;4.95;;;2.65;;
7703;SDS011;3894;49.700;10.770;2023-06-14T09:46:34;6.55;;;2.63;;
7703;SDS011;3894;49.700;10.770;2023-06-14T09:49:01;5.57;;;2.58;;
7703;SDS011;3894;49.700;10.770;2023-06-14T09:51:27;4.53;;;2.13;;
7703;SDS011;3894;49.700;10.770;2023-06-14T09:54:00;6.30;;;2.50;;
7703;SDS011;3894;49.700;10.770;2023-06-14T09:56:29;5.20;;;2.42;;
7703;SDS011;3894;49.700;10.770;2023-06-14T10:01:26;5.40;;;2.88;;
7703;SDS011;3894;49.700;10.770;2023-06-14T10:03:55;6.25;;;3.40;;
7703;SDS011;3894;49.700;10.770;2023-06-14T10:06:28;6.35;;;2.67;;
7703;SDS011;3894;49.700;10.770;2023-06-14T10:11:25;5.00;;;2.47;;
7703;SDS011;3894;49.700;10.770;2023-06-14T10:13:51;6.68;;;2.63;;
7703;SDS011;3894;49.700;10.770;2023-06-14T10:22:19;6.75;;;2.50;;
7703;SDS011;3894;49.700;10.770;2023-06-14T10:24:54;5.25;;;1.90;;
7703;SDS011;3894;49.700;10.770;2023-06-14T10:27:21;6.43;;;2.67;;
7703;SDS011;3894;49.700;10.770;2023-06-14T10:32:18;5.43;;;2.30;;
7703;SDS011;3894;49.700;10.770;2023-06-14T10:34:44;5.07;;;1.77;;
7703;SDS011;3894;49.700;10.770;2023-06-14T10:37:13;7.35;;;3.05;;
7703;SDS011;3894;49.700;10.770;2023-06-14T10:42:10;6.50;;;2.20;;
7703;SDS011;3894;49.700;10.770;2023-06-14T10:44:40;5.20;;;2.63;;
7703;SDS011;3894;49.700;10.770;2023-06-14T10:47:11;6.78;;;2.47;;
7703;SDS011;3894;49.700;10.770;2023-06-14T10:49:55;5.20;;;2.13;;
7703;SDS011;3894;49.700;10.770;2023-06-14T10:52:27;6.60;;;3.08;;
7703;SDS011;3894;49.700;10.770;2023-06-14T10:55:08;5.70;;;2.78;;
7703;SDS011;3894;49.700;10.770;2023-06-14T10:57:55;5.00;;;2.40;;
7703;SDS011;3894;49.700;10.770;2023-06-14T11:00:22;4.90;;;2.78;;
7703;SDS011;3894;49.700;10.770;2023-06-14T11:11:06;4.88;;;2.50;;
7703;SDS011;3894;49.700;10.770;2023-06-14T11:13:32;4.93;;;2.17;;
7703;SDS011;3894;49.700;10.770;2023-06-14T11:15:58;5.70;;;2.67;;
7703;SDS011;3894;49.700;10.770;2023-06-14T11:18:24;5.95;;;2.65;;
7703;SDS011;3894;49.700;10.770;2023-06-14T11:20:50;5.88;;;2.33;;
7703;SDS011;3894;49.700;10.770;2023-06-14T11:23:15;5.53;;;2.55;;
7703;SDS011;3894;49.700;10.770;2023-06-14T11:25:41;5.82;;;2.53;;
7703;SDS011;3894;49.700;10.770;2023-06-14T11:28:07;3.95;;;2.00;;
7703;SDS011;3894;49.700;10.770;2023-06-14T11:30:32;9.07;;;1.90;;
7703;SDS011;3894;49.700;10.770;2023-06-14T11:32:58;4.55;;;2.08;;
7703;SDS011;3894;49.700;10.770;2023-06-14T11:35:24;6.38;;;2.75;;
7703;SDS011;3894;49.700;10.770;2023-06-14T11:37:57;5.43;;;1.75;;
7703;SDS011;3894;49.700;10.770;2023-06-14T11:40:25;5.50;;;2.47;;
7703;SDS011;3894;49.700;10.770;2023-06-14T11:42:59;4.25;;;1.98;;
7703;SDS011;3894;49.700;10.770;2023-06-14T11:45:26;6.00;;;1.77;;
7703;SDS011;3894;49.700;10.770;2023-06-14T11:47:53;5.15;;;2.58;;
7703;SDS011;3894;49.700;10.770;2023-06-14T11:50:21;6.00;;;2.83;;
7703;SDS011;3894;49.700;10.770;2023-06-14T11:52:56;7.07;;;2.65;;
7703;SDS011;3894;49.700;10.770;2023-06-14T11:55:25;4.50;;;2.13;;
7703;SDS011;3894;49.700;10.770;2023-06-14T11:57:51;5.00;;;2.00;;
7703;SDS011;3894;49.700;10.770;2023-06-14T12:00:22;6.18;;;2.55;;
7703;SDS011;3894;49.700;10.770;2023-06-14T12:02:53;4.50;;;2.15;;
7703;SDS011;3894;49.700;10.770;2023-06-14T12:05:21;4.47;;;2.33;;
7703;SDS011;3894;49.700;10.770;2023-06-14T12:07:48;4.95;;;1.95;;
7703;SDS011;3894;49.700;10.770;2023-06-14T12:10:15;4.95;;;2.45;;
7703;SDS011;3894;49.700;10.770;2023-06-14T12:12:41;4.68;;;1.75;;
7703;SDS011;3894;49.700;10.770;2023-06-14T12:15:08;4.65;;;2.40;;
7703;SDS011;3894;49.700;10.770;2023-06-14T12:17:36;4.32;;;2.10;;
7703;SDS011;3894;49.700;10.770;2023-06-14T12:20:07;4.93;;;1.58;;
7703;SDS011;3894;49.700;10.770;2023-06-14T12:22:39;4.60;;;2.20;;
7703;SDS011;3894;49.700;10.770;2023-06-14T12:25:22;6.43;;;2.53;;
7703;SDS011;3894;49.700;10.770;2023-06-14T12:27:52;4.43;;;2.45;;
7703;SDS011;3894;49.700;10.770;2023-06-14T12:30:21;5.03;;;2.42;;
7703;SDS011;3894;49.700;10.770;2023-06-14T12:32:46;5.72;;;2.35;;
7703;SDS011;3894;49.700;10.770;2023-06-14T12:35:12;5.55;;;2.50;;
7703;SDS011;3894;49.700;10.770;2023-06-14T12:37:37;4.85;;;2.35;;
7703;SDS011;3894;49.700;10.770;2023-06-14T12:40:03;4.72;;;2.97;;
7703;SDS011;3894;49.700;10.770;2023-06-14T12:42:30;5.68;;;3.13;;
7703;SDS011;3894;49.700;10.770;2023-06-14T12:44:56;5.22;;;2.50;;
7703;SDS011;3894;49.700;10.770;2023-06-14T12:47:22;5.90;;;2.40;;
7703;SDS011;3894;49.700;10.770;2023-06-14T12:49:47;4.75;;;2.40;;
7703;SDS011;3894;49.700;10.770;2023-06-14T12:52:13;5.68;;;2.58;;
7703;SDS011;3894;49.700;10.770;2023-06-14T12:54:38;4.70;;;2.70;;
7703;SDS011;3894;49.700;10.770;2023-06-14T12:57:04;4.40;;;2.47;;
7703;SDS011;3894;49.700;10.770;2023-06-14T12:59:30;6.25;;;3.33;;
7703;SDS011;3894;49.700;10.770;2023-06-14T13:01:59;6.50;;;2.90;;
7703;SDS011;3894;49.700;10.770;2023-06-14T13:04:34;5.75;;;2.67;;
7703;SDS011;3894;49.700;10.770;2023-06-14T13:07:00;7.30;;;2.78;;
7703;SDS011;3894;49.700;10.770;2023-06-14T13:09:25;9.35;;;3.05;;
7703;SDS011;3894;49.700;10.770;2023-06-14T13:11:51;7.00;;;3.00;;
7703;SDS011;3894;49.700;10.770;2023-06-14T13:14:17;4.50;;;2.78;;
7703;SDS011;3894;49.700;10.770;2023-06-14T13:16:43;4.00;;;1.88;;
7703;SDS011;3894;49.700;10.770;2023-06-14T13:19:09;5.53;;;1.60;;
7703;SDS011;3894;49.700;10.770;2023-06-14T13:21:34;5.95;;;2.40;;
7703;SDS011;3894;49.700;10.770;2023-06-14T13:24:00;5.30;;;2.60;;
7703;SDS011;3894;49.700;10.770;2023-06-14T13:26:26;4.80;;;2.47;;
7703;SDS011;3894;49.700;10.770;2023-06-14T13:28:52;5.78;;;1.70;;
7703;SDS011;3894;49.700;10.770;2023-06-14T13:31:17;4.57;;;1.88;;
7703;SDS011;3894;49.700;10.770;2023-06-14T13:33:43;5.10;;;2.50;;
7703;SDS011;3894;49.700;10.770;2023-06-14T13:36:09;4.20;;;2.25;;
7703;SDS011;3894;49.700;10.770;2023-06-14T13:38:35;4.88;;;2.50;;
7703;SDS011;3894;49.700;10.770;2023-06-14T13:41:00;4.95;;;2.42;;
7703;SDS011;3894;49.700;10.770;2023-06-14T13:43:26;4.28;;;2.42;;
7703;SDS011;3894;49.700;10.770;2023-06-14T13:45:51;4.55;;;2.92;;
7703;SDS011;3894;49.700;10.770;2023-06-14T13:48:17;5.43;;;2.28;;
7703;SDS011;3894;49.700;10.770;2023-06-14T13:50:44;5.82;;;2.60;;
7703;SDS011;3894;49.700;10.770;2023-06-14T13:53:11;4.95;;;2.80;;
7703;SDS011;3894;49.700;10.770;2023-06-14T13:55:39;4.18;;;2.20;;
7703;SDS011;3894;49.700;10.770;2023-06-14T13:58:04;5.78;;;2.47;;
7703;SDS011;3894;49.700;10.770;2023-06-14T14:00:30;5.13;;;2.13;;
7703;SDS011;3894;49.700;10.770;2023-06-14T14:02:55;4.35;;;2.28;;
7703;SDS011;3894;49.700;10.770;2023-06-14T14:05:22;4.22;;;1.90;;
7703;SDS011;3894;49.700;10.770;2023-06-14T14:07:53;4.57;;;2.22;;
7703;SDS011;3894;49.700;10.770;2023-06-14T14:10:19;6.22;;;2.33;;
7703;SDS011;3894;49.700;10.770;2023-06-14T14:12:45;6.68;;;2.95;;
7703;SDS011;3894;49.700;10.770;2023-06-14T14:15:11;4.28;;;2.13;;
7703;SDS011;3894;49.700;10.770;2023-06-14T14:17:39;6.50;;;2.63;;
7703;SDS011;3894;49.700;10.770;2023-06-14T14:20:06;4.90;;;2.58;;
7703;SDS011;3894;49.700;10.770;2023-06-14T14:22:32;4.20;;;1.80;;
7703;SDS011;3894;49.700;10.770;2023-06-14T14:24:57;4.70;;;2.25;;
7703;SDS011;3894;49.700;10.770;2023-06-14T14:27:24;6.00;;;2.42;;
7703;SDS011;3894;49.700;10.770;2023-06-14T14:29:50;4.00;;;2.20;;
7703;SDS011;3894;49.700;10.770;2023-06-14T14:32:15;4.32;;;2.00;;
7703;SDS011;3894;49.700;10.770;2023-06-14T14:34:41;5.05;;;2.53;;
7703;SDS011;3894;49.700;10.770;2023-06-14T14:37:07;4.43;;;1.92;;
7703;SDS011;3894;49.700;10.770;2023-06-14T14:39:32;3.75;;;1.25;;
7703;SDS011;3894;49.700;10.770;2023-06-14T14:41:58;4.57;;;2.30;;
7703;SDS011;3894;49.700;10.770;2023-06-14T14:44:23;6.30;;;2.10;;
7703;SDS011;3894;49.700;10.770;2023-06-14T14:46:49;4.72;;;1.88;;
7703;SDS011;3894;49.700;10.770;2023-06-14T14:49:15;5.05;;;2.00;;
7703;SDS011;3894;49.700;10.770;2023-06-14T14:51:40;4.00;;;2.00;;
7703;SDS011;3894;49.700;10.770;2023-06-14T14:54:06;5.00;;;1.85;;
7703;SDS011;3894;49.700;10.770;2023-06-14T14:56:32;6.20;;;2.00;;
7703;SDS011;3894;49.700;10.770;2023-06-14T14:58:57;5.35;;;2.55;;
7703;SDS011;3894;49.700;10.770;2023-06-14T15:01:23;4.65;;;2.20;;
7703;SDS011;3894;49.700;10.770;2023-06-14T15:03:48;5.97;;;2.00;;
7703;SDS011;3894;49.700;10.770;2023-06-14T15:06:14;4.75;;;2.63;;
7703;SDS011;3894;49.700;10.770;2023-06-14T15:08:40;4.43;;;2.72;;
7703;SDS011;3894;49.700;10.770;2023-06-14T15:11:05;4.43;;;1.98;;
7703;SDS011;3894;49.700;10.770;2023-06-14T15:13:31;4.03;;;2.17;;
7703;SDS011;3894;49.700;10.770;2023-06-14T15:15:57;4.45;;;1.95;;
7703;SDS011;3894;49.700;10.770;2023-06-14T15:18:22;4.45;;;1.85;;
7703;SDS011;3894;49.700;10.770;2023-06-14T15:20:48;5.00;;;1.95;;
7703;SDS011;3894;49.700;10.770;2023-06-14T15:23:14;5.72;;;3.47;;
7703;SDS011;3894;49.700;10.770;2023-06-14T15:25:45;4.93;;;2.03;;
7703;SDS011;3894;49.700;10.770;2023-06-14T15:28:12;4.95;;;1.98;;
7703;SDS011;3894;49.700;10.770;2023-06-14T15:30:38;5.20;;;2.10;;
7703;SDS011;3894;49.700;10.770;2023-06-14T15:33:03;4.10;;;1.88;;
7703;SDS011;3894;49.700;10.770;2023-06-14T15:35:29;4.38;;;2.63;;
7703;SDS011;3894;49.700;10.770;2023-06-14T15:37:55;4.53;;;2.15;;